createdAt,value
2018-02-17T00:00:01.060Z,1009.65
2018-02-17T00:01:11.116Z,1009.72
2018-02-17T00:02:21.200Z,1009.74
2018-02-17T00:03:31.249Z,1009.68
2018-02-17T00:04:41.312Z,1009.71
2018-02-17T00:05:51.112Z,1009.63
2018-02-17T00:07:00.931Z,1009.65
2018-02-17T00:08:10.728Z,1009.64
2018-02-17T00:09:20.266Z,1009.66
2018-02-17T00:10:30.332Z,1009.71
2018-02-17T00:11:40.204Z,1009.7
2018-02-17T00:12:50.269Z,1009.75
2018-02-17T00:14:00.350Z,1009.73
2018-02-17T00:15:10.412Z,1009.76
2018-02-17T00:16:20.492Z,1009.73
2018-02-17T00:17:30.796Z,1009.72
2018-02-17T00:18:40.067Z,1009.72
2018-02-17T00:19:50.871Z,1009.67
2018-02-17T00:21:00.930Z,1009.71
2018-02-17T00:22:11.028Z,1009.66
2018-02-17T00:23:20.825Z,1009.63
2018-02-17T00:24:30.894Z,1009.68
2018-02-17T00:25:40.948Z,1009.69
2018-02-17T00:26:51.019Z,1009.7
2018-02-17T00:28:01.100Z,1009.71
2018-02-17T00:29:10.954Z,1009.73
2018-02-17T00:30:20.510Z,1009.69
2018-02-17T00:31:30.558Z,1009.68
2018-02-17T00:32:40.640Z,1009.7
2018-02-17T00:33:50.692Z,1009.7
2018-02-17T00:35:00.757Z,1009.69
2018-02-17T00:36:10.560Z,1009.68
2018-02-17T00:37:20.659Z,1009.73
2018-02-17T00:38:30.728Z,1009.72
2018-02-17T00:39:40.536Z,1009.72
2018-02-17T00:40:50.341Z,1009.71
2018-02-17T00:42:00.409Z,1009.71
2018-02-17T00:43:10.463Z,1009.66
2018-02-17T00:44:20.521Z,1009.68
2018-02-17T00:45:30.325Z,1009.74
2018-02-17T00:46:40.016Z,1009.78
2018-02-17T00:47:50.083Z,1009.78
2018-02-17T00:49:00.147Z,1009.79
2018-02-17T00:50:10.197Z,1009.78
2018-02-17T00:51:20.260Z,1009.73
2018-02-17T00:52:29.863Z,1009.72
2018-02-17T00:53:39.935Z,1009.71
2018-02-17T00:54:49.982Z,1009.71
2018-02-17T00:56:00.059Z,1009.76
2018-02-17T00:57:10.115Z,1009.72
2018-02-17T00:58:19.964Z,1009.76
2018-02-17T00:59:29.761Z,1009.77
2018-02-17T01:00:39.820Z,1009.78
2018-02-17T01:01:49.634Z,1009.77
2018-02-17T01:02:59.762Z,1009.76
2018-02-17T01:04:09.594Z,1009.78
2018-02-17T01:05:19.392Z,1009.81
2018-02-17T01:06:29.184Z,1009.83
2018-02-17T01:07:39.267Z,1009.82
2018-02-17T01:08:49.072Z,1009.82
2018-02-17T01:09:59.135Z,1009.79
2018-02-17T01:11:08.677Z,1009.79
2018-02-17T01:12:18.738Z,1009.77
2018-02-17T01:13:28.813Z,1009.75
2018-02-17T01:14:38.870Z,1009.78
2018-02-17T01:15:48.402Z,1009.77
2018-02-17T01:16:57.941Z,1009.73
2018-02-17T01:18:07.210Z,1009.72
2018-02-17T01:19:17.001Z,1009.63
2018-02-17T01:20:26.812Z,1009.64
2018-02-17T01:21:36.875Z,1009.61
2018-02-17T01:22:46.648Z,1009.64
2018-02-17T01:23:56.173Z,1009.68
2018-02-17T01:25:06.221Z,1009.65
2018-02-17T01:26:16.017Z,1009.61
2018-02-17T01:27:25.919Z,1009.59
2018-02-17T01:28:35.971Z,1009.55
2018-02-17T01:29:46.573Z,1009.56
2018-02-17T01:30:56.369Z,1009.51
2018-02-17T01:32:06.164Z,1009.53
2018-02-17T01:33:15.961Z,1009.54
2018-02-17T01:34:26.032Z,1009.53
2018-02-17T01:35:35.573Z,1009.5
2018-02-17T01:36:45.357Z,1009.55
2018-02-17T01:37:55.425Z,1009.53
2018-02-17T01:39:05.215Z,1009.55
2018-02-17T01:40:15.287Z,1009.54
2018-02-17T01:41:25.351Z,1009.5
2018-02-17T01:42:35.414Z,1009.51
2018-02-17T01:43:45.467Z,1009.49
2018-02-17T01:44:55.526Z,1009.47
2018-02-17T01:46:05.334Z,1009.45
2018-02-17T01:47:15.400Z,1009.46
2018-02-17T01:48:25.458Z,1009.5
2018-02-17T01:49:35.532Z,1009.49
2018-02-17T01:50:45.577Z,1009.48
2018-02-17T01:51:56.473Z,1009.44
2018-02-17T01:53:06.005Z,1009.45
2018-02-17T01:54:15.808Z,1009.43
2018-02-17T01:55:25.864Z,1009.44
2018-02-17T01:56:35.656Z,1009.43
2018-02-17T01:57:45.455Z,1009.43
2018-02-17T01:58:54.985Z,1009.44
2018-02-17T02:00:04.777Z,1009.47
2018-02-17T02:01:14.558Z,1009.47
2018-02-17T02:02:24.608Z,1009.42
2018-02-17T02:03:34.403Z,1009.41
2018-02-17T02:04:44.461Z,1009.41
2018-02-17T02:05:54.243Z,1009.4
2018-02-17T02:07:04.051Z,1009.42
2018-02-17T02:08:14.115Z,1009.41
2018-02-17T02:09:23.909Z,1009.34
2018-02-17T02:10:33.445Z,1009.36
2018-02-17T02:11:43.496Z,1009.33
2018-02-17T02:12:53.298Z,1009.34
2018-02-17T02:14:03.147Z,1009.32
2018-02-17T02:15:13.201Z,1009.29
2018-02-17T02:16:22.740Z,1009.3
2018-02-17T02:17:32.536Z,1009.32
2018-02-17T02:18:42.055Z,1009.31
2018-02-17T02:19:51.839Z,1009.29
2018-02-17T02:21:01.897Z,1009.26
2018-02-17T02:22:11.714Z,1009.21
2018-02-17T02:23:21.768Z,1009.22
2018-02-17T02:24:31.831Z,1009.23
2018-02-17T02:25:41.368Z,1009.25
2018-02-17T02:26:51.429Z,1009.27
2018-02-17T02:28:01.484Z,1009.27
2018-02-17T02:29:11.279Z,1009.2
2018-02-17T02:30:21.086Z,1009.21
2018-02-17T02:31:31.126Z,1009.17
2018-02-17T02:32:40.949Z,1009.13
2018-02-17T02:33:50.497Z,1009.13
2018-02-17T02:35:00.035Z,1009.13
2018-02-17T02:36:09.832Z,1009.1
2018-02-17T02:37:19.656Z,1009.06
2018-02-17T02:38:29.743Z,1009.08
2018-02-17T02:39:39.816Z,1009.09
2018-02-17T02:40:49.891Z,1009.1
2018-02-17T02:41:59.957Z,1009.11
2018-02-17T02:43:10.027Z,1009.12
2018-02-17T02:44:20.108Z,1009.13
2018-02-17T02:45:30.181Z,1009.1
2018-02-17T02:46:39.966Z,1009.12
2018-02-17T02:47:50.016Z,1009.13
2018-02-17T02:48:59.866Z,1009.14
2018-02-17T02:50:09.935Z,1009.13
2018-02-17T02:51:19.716Z,1009.08
2018-02-17T02:52:29.796Z,1009.1
2018-02-17T02:53:39.867Z,1009.06
2018-02-17T02:54:49.921Z,1009.08
2018-02-17T02:55:59.477Z,1009.11
2018-02-17T02:57:09.276Z,1009.06
2018-02-17T02:58:19.331Z,1009.05
2018-02-17T02:59:29.425Z,1009.06
2018-02-17T03:00:40.545Z,1009.01
2018-02-17T03:01:50.600Z,1009.01
2018-02-17T03:03:00.401Z,1008.97
2018-02-17T03:04:10.184Z,1008.96
2018-02-17T03:05:19.986Z,1008.88
2018-02-17T03:36:39.606Z,1008.56
2018-02-17T03:37:49.653Z,1008.53
2018-02-17T03:38:59.702Z,1008.57
2018-02-17T03:40:09.738Z,1008.51
2018-02-17T03:41:19.780Z,1008.44
2018-02-17T03:42:29.874Z,1008.47
2018-02-17T03:43:39.932Z,1008.44
2018-02-17T03:44:49.713Z,1008.45
2018-02-17T03:45:59.745Z,1008.43
2018-02-17T03:47:09.791Z,1008.45
2018-02-17T03:48:19.862Z,1008.42
2018-02-17T03:49:29.923Z,1008.41
2018-02-17T03:50:39.703Z,1008.47
2018-02-17T03:51:49.495Z,1008.48
2018-02-17T03:52:59.291Z,1008.54
2018-02-17T03:54:08.826Z,1008.49
2018-02-17T03:55:18.869Z,1008.51
2018-02-17T03:56:28.670Z,1008.49
2018-02-17T03:57:38.190Z,1008.48
2018-02-17T03:58:47.984Z,1008.47
2018-02-17T03:59:58.042Z,1008.42
2018-02-17T04:01:08.086Z,1008.37
2018-02-17T04:02:18.139Z,1008.37
2018-02-17T04:03:28.175Z,1008.38
2018-02-17T04:04:38.220Z,1008.35
2018-02-17T04:05:48.337Z,1008.29
2018-02-17T04:06:57.609Z,1008.34
2018-02-17T04:08:07.402Z,1008.32
2018-02-17T04:09:17.439Z,1008.31
2018-02-17T04:10:27.494Z,1008.27
2018-02-17T04:11:37.544Z,1008.25
2018-02-17T04:12:47.358Z,1008.25
2018-02-17T04:13:57.425Z,1008.25
2018-02-17T04:15:06.952Z,1008.26
2018-02-17T04:16:17.020Z,1008.26
2018-02-17T04:17:27.064Z,1008.29
2018-02-17T04:18:36.586Z,1008.2
2018-02-17T04:19:46.108Z,1008.18
2018-02-17T04:20:55.889Z,1008.13
2018-02-17T04:22:05.957Z,1008.14
2018-02-17T04:23:15.756Z,1008.09
2018-02-17T04:24:25.541Z,1008.04
2018-02-17T04:25:35.335Z,1008.03
2018-02-17T04:26:45.135Z,1008.11
2018-02-17T04:27:55.344Z,1008.12
2018-02-17T04:29:05.400Z,1008.11
2018-02-17T04:30:15.195Z,1008.14
2018-02-17T04:31:25.247Z,1008.1
2018-02-17T04:32:35.039Z,1008.12
2018-02-17T04:33:44.570Z,1008.16
2018-02-17T04:34:54.158Z,1008.15
2018-02-17T04:36:04.213Z,1008.16
2018-02-17T04:37:14.272Z,1008.1
2018-02-17T04:38:24.317Z,1008.1
2018-02-17T04:39:34.360Z,1008.02
2018-02-17T04:40:45.104Z,1007.98
2018-02-17T04:41:54.888Z,1007.93
2018-02-17T04:43:04.672Z,1007.89
2018-02-17T04:44:14.194Z,1007.87
2018-02-17T04:45:24.007Z,1007.83
2018-02-17T04:46:34.055Z,1007.77
2018-02-17T04:47:43.849Z,1007.77
2018-02-17T04:48:53.913Z,1007.84
2018-02-17T04:50:03.733Z,1007.9
2018-02-17T04:51:13.790Z,1007.92
2018-02-17T04:52:23.915Z,1007.89
2018-02-17T04:53:33.705Z,1007.9
2018-02-17T04:54:43.750Z,1007.92
2018-02-17T04:55:53.276Z,1007.89
2018-02-17T04:57:03.072Z,1007.95
2018-02-17T04:58:12.650Z,1007.95
2018-02-17T04:59:22.425Z,1007.96
2018-02-17T05:00:32.488Z,1007.94
2018-02-17T05:01:42.553Z,1007.89
2018-02-17T05:02:52.094Z,1007.9
2018-02-17T05:04:01.939Z,1007.86
2018-02-17T05:05:11.990Z,1007.87
2018-02-17T05:06:22.069Z,1007.87
2018-02-17T05:07:32.122Z,1007.89
2018-02-17T05:08:42.176Z,1007.89
2018-02-17T05:09:52.245Z,1007.94
2018-02-17T05:11:01.770Z,1008.01
2018-02-17T05:12:11.812Z,1008.07
2018-02-17T05:13:21.854Z,1008.08
2018-02-17T05:14:31.639Z,1008.09
2018-02-17T05:15:41.432Z,1008.08
2018-02-17T05:16:51.235Z,1008.09
2018-02-17T05:18:01.291Z,1008.05
2018-02-17T05:19:10.552Z,1008.05
2018-02-17T05:20:19.808Z,1008.04
2018-02-17T05:21:29.909Z,1008.02
2018-02-17T05:22:39.733Z,1008.03
2018-02-17T05:23:49.533Z,1007.99
2018-02-17T05:24:59.595Z,1007.98
2018-02-17T05:26:09.386Z,1007.93
2018-02-17T05:27:19.197Z,1007.95
2018-02-17T05:28:29.247Z,1007.9
2018-02-17T05:29:39.311Z,1007.89
2018-02-17T05:30:49.353Z,1007.94
2018-02-17T05:31:59.409Z,1007.89
2018-02-17T05:33:09.458Z,1007.93
2018-02-17T05:34:19.264Z,1007.91
2018-02-17T05:35:29.327Z,1007.92
2018-02-17T05:36:39.370Z,1007.88
2018-02-17T05:37:49.437Z,1007.91
2018-02-17T05:38:59.509Z,1007.92
2018-02-17T05:40:09.570Z,1007.91
2018-02-17T05:41:19.352Z,1007.9
2018-02-17T05:42:29.415Z,1007.88
2018-02-17T05:43:39.476Z,1007.85
2018-02-17T05:44:49.258Z,1007.9
2018-02-17T05:45:59.034Z,1007.96
2018-02-17T05:47:08.820Z,1007.94
2018-02-17T05:48:18.604Z,1007.95
2018-02-17T05:49:28.647Z,1007.95
2018-02-17T05:50:38.455Z,1007.89
2018-02-17T05:51:48.494Z,1007.87
2018-02-17T05:52:58.281Z,1007.87
2018-02-17T05:54:08.078Z,1007.88
2018-02-17T05:55:18.139Z,1007.85
2018-02-17T05:56:28.196Z,1007.84
2018-02-17T05:57:37.995Z,1007.86
2018-02-17T05:58:48.054Z,1007.8
2018-02-17T05:59:57.837Z,1007.82
2018-02-17T06:01:07.653Z,1007.75
2018-02-17T06:02:17.723Z,1007.73
2018-02-17T06:03:27.237Z,1007.77
2018-02-17T06:04:37.039Z,1007.71
2018-02-17T06:05:47.091Z,1007.69
2018-02-17T06:06:57.142Z,1007.68
2018-02-17T06:08:06.712Z,1007.65
2018-02-17T06:09:15.987Z,1007.58
2018-02-17T06:10:26.050Z,1007.56
2018-02-17T06:11:35.854Z,1007.5
2018-02-17T06:12:45.916Z,1007.46
2018-02-17T06:13:55.962Z,1007.42
2018-02-17T06:15:05.753Z,1007.41
2018-02-17T06:16:15.824Z,1007.43
2018-02-17T06:17:25.644Z,1007.39
2018-02-17T06:18:35.701Z,1007.33
2018-02-17T06:19:45.649Z,1007.36
2018-02-17T06:20:55.183Z,1007.37
2018-02-17T06:22:04.980Z,1007.34
2018-02-17T06:23:15.035Z,1007.33
2018-02-17T06:24:24.820Z,1007.31
2018-02-17T06:25:34.918Z,1007.33
2018-02-17T06:26:44.487Z,1007.31
2018-02-17T06:27:54.550Z,1007.25
2018-02-17T06:29:04.075Z,1007.32
2018-02-17T06:30:13.871Z,1007.32
2018-02-17T06:31:23.674Z,1007.27
2018-02-17T06:32:33.465Z,1007.23
2018-02-17T06:33:43.247Z,1007.25
2018-02-17T06:34:53.296Z,1007.19
2018-02-17T06:36:03.350Z,1007.2
2018-02-17T06:37:13.603Z,1007.23
2018-02-17T06:38:23.395Z,1007.23
2018-02-17T06:39:33.441Z,1007.32
2018-02-17T06:40:42.972Z,1007.32
2018-02-17T06:41:52.754Z,1007.36
2018-02-17T06:43:02.837Z,1007.38
2018-02-17T06:44:12.627Z,1007.4
2018-02-17T06:45:22.164Z,1007.4
2018-02-17T06:46:31.693Z,1007.42
2018-02-17T06:47:41.478Z,1007.37
2018-02-17T06:48:51.311Z,1007.39
2018-02-17T06:50:01.107Z,1007.39
2018-02-17T06:51:11.160Z,1007.4
2018-02-17T06:52:21.219Z,1007.36
2018-02-17T06:53:31.273Z,1007.31
2018-02-17T06:54:41.315Z,1007.29
2018-02-17T06:55:50.583Z,1007.33
2018-02-17T06:57:00.405Z,1007.31
2018-02-17T06:58:10.523Z,1007.33
2018-02-17T06:59:20.320Z,1007.36
2018-02-17T07:00:30.151Z,1007.4
2018-02-17T07:01:40.183Z,1007.36
2018-02-17T07:02:50.224Z,1007.37
2018-02-17T07:04:00.031Z,1007.39
2018-02-17T07:05:09.834Z,1007.37
2018-02-17T07:06:19.363Z,1007.35
2018-02-17T07:07:28.905Z,1007.3
2018-02-17T07:08:38.702Z,1007.31
2018-02-17T07:09:48.493Z,1007.37
2018-02-17T07:10:58.278Z,1007.33
2018-02-17T07:12:08.372Z,1007.31
2018-02-17T07:13:17.904Z,1007.35
2018-02-17T07:14:27.946Z,1007.37
2018-02-17T07:15:37.739Z,1007.39
2018-02-17T07:16:47.793Z,1007.38
2018-02-17T07:17:57.856Z,1007.44
2018-02-17T07:19:07.667Z,1007.41
2018-02-17T07:20:17.729Z,1007.45
2018-02-17T07:21:27.632Z,1007.41
2018-02-17T07:22:37.154Z,1007.34
2018-02-17T07:23:46.700Z,1007.35
2018-02-17T07:24:56.476Z,1007.4
2018-02-17T07:26:06.282Z,1007.43
2018-02-17T07:27:15.830Z,1007.46
2018-02-17T07:28:25.956Z,1007.41
2018-02-17T07:29:36.009Z,1007.34
2018-02-17T07:30:46.056Z,1007.3
2018-02-17T07:31:55.316Z,1007.3
2018-02-17T07:33:04.580Z,1007.28
2018-02-17T07:34:14.361Z,1007.28
2018-02-17T07:35:24.526Z,1007.32
2018-02-17T07:36:34.323Z,1007.3
2018-02-17T07:37:44.118Z,1007.3
2018-02-17T07:38:53.948Z,1007.28
2018-02-17T07:40:03.743Z,1007.22
2018-02-17T07:41:13.838Z,1007.25
2018-02-17T07:42:23.659Z,1007.16
2018-02-17T07:43:33.451Z,1007.14
2018-02-17T07:44:43.514Z,1007.11
2018-02-17T07:45:53.304Z,1007.04
2018-02-17T07:47:03.109Z,1007.03
2018-02-17T07:48:13.165Z,1007.01
2018-02-17T07:49:23.215Z,1007.04
2018-02-17T07:50:33.260Z,1006.98
2018-02-17T07:51:43.327Z,1006.92
2018-02-17T07:52:53.375Z,1006.88
2018-02-17T07:54:03.418Z,1006.82
2018-02-17T07:55:12.937Z,1006.82
2018-02-17T07:56:22.734Z,1006.75
2018-02-17T07:57:32.812Z,1006.77
2018-02-17T07:58:42.881Z,1006.72
2018-02-17T07:59:53.344Z,1006.76
2018-02-17T08:01:03.414Z,1006.75
2018-02-17T08:02:12.957Z,1006.76
2018-02-17T08:03:22.757Z,1006.75
2018-02-17T08:04:32.537Z,1006.71
2018-02-17T08:05:42.330Z,1006.69
2018-02-17T08:06:52.135Z,1006.68
2018-02-17T08:08:01.928Z,1006.7
2018-02-17T08:09:11.712Z,1006.61
2018-02-17T08:10:21.771Z,1006.6
2018-02-17T08:11:31.831Z,1006.59
2018-02-17T08:12:41.889Z,1006.59
2018-02-17T08:13:51.960Z,1006.59
2018-02-17T08:15:01.759Z,1006.59
2018-02-17T08:16:11.906Z,1006.61
2018-02-17T08:17:21.707Z,1006.53
2018-02-17T08:18:31.774Z,1006.41
2018-02-17T08:19:41.570Z,1006.35
2018-02-17T08:20:51.354Z,1006.3
2018-02-17T08:22:01.192Z,1006.2
2018-02-17T08:23:10.994Z,1006.17
2018-02-17T08:24:21.059Z,1006.18
2018-02-17T08:25:31.164Z,1006.15
2018-02-17T08:26:41.219Z,1006.16
2018-02-17T08:27:51.278Z,1006.22
2018-02-17T08:29:01.342Z,1006.17
2018-02-17T08:30:11.139Z,1006.18
2018-02-17T08:31:21.252Z,1006.19
2018-02-17T08:32:30.785Z,1006.08
2018-02-17T08:33:40.866Z,1006.05
2018-02-17T08:34:50.922Z,1006.03
2018-02-17T08:36:00.975Z,1005.94
2018-02-17T08:37:10.512Z,1005.96
2018-02-17T08:38:20.589Z,1005.93
2018-02-17T08:39:30.398Z,1005.94
2018-02-17T08:40:40.480Z,1005.92
2018-02-17T08:41:50.538Z,1005.93
2018-02-17T08:43:00.354Z,1005.95
2018-02-17T08:44:10.412Z,1005.98
2018-02-17T08:45:20.473Z,1005.99
2018-02-17T08:46:30.766Z,1006.01
2018-02-17T08:47:40.612Z,1006.04
2018-02-17T08:48:50.413Z,1006.07
2018-02-17T08:49:59.709Z,1006.06
2018-02-17T08:51:09.835Z,1006.11
2018-02-17T08:52:19.627Z,1006.11
2018-02-17T08:53:29.421Z,1006.16
2018-02-17T08:54:39.489Z,1006.18
2018-02-17T08:55:49.559Z,1006.22
2018-02-17T08:56:59.407Z,1006.22
2018-02-17T08:58:09.478Z,1006.2
2018-02-17T08:59:19.540Z,1006.12
2018-02-17T09:00:29.080Z,1006.03
2018-02-17T09:01:38.610Z,1005.98
2018-02-17T09:02:48.694Z,1005.9
2018-02-17T09:03:58.482Z,1005.84
2018-02-17T09:05:08.269Z,1005.84
2018-02-17T09:06:18.320Z,1005.75
2018-02-17T09:07:27.859Z,1005.68
2018-02-17T09:08:37.662Z,1005.68
2018-02-17T09:09:47.491Z,1005.67
2018-02-17T09:10:57.631Z,1005.71
2018-02-17T09:12:07.461Z,1005.7
2018-02-17T09:13:17.555Z,1005.75
2018-02-17T09:14:27.346Z,1005.81
2018-02-17T09:15:37.131Z,1005.8
2018-02-17T09:16:46.929Z,1005.73
2018-02-17T09:17:57.333Z,1005.69
2018-02-17T09:19:07.127Z,1005.65
2018-02-17T09:20:16.998Z,1005.66
2018-02-17T09:21:26.854Z,1005.69
2018-02-17T09:22:36.916Z,1005.81
2018-02-17T09:23:46.722Z,1005.81
2018-02-17T09:24:56.269Z,1005.83
2018-02-17T09:26:05.788Z,1005.85
2018-02-17T09:27:15.322Z,1005.86
2018-02-17T09:28:25.390Z,1005.88
2018-02-17T09:29:35.180Z,1005.84
2018-02-17T09:30:44.983Z,1005.84
2018-02-17T09:31:54.512Z,1005.82
2018-02-17T09:33:04.578Z,1005.82
2018-02-17T09:34:14.359Z,1005.79
2018-02-17T09:35:24.421Z,1005.76
2018-02-17T09:36:34.478Z,1005.64
2018-02-17T09:37:44.554Z,1005.56
2018-02-17T09:38:54.623Z,1005.53
2018-02-17T09:40:04.683Z,1005.5
2018-02-17T09:41:14.743Z,1005.45
2018-02-17T09:42:24.280Z,1005.39
2018-02-17T09:43:34.107Z,1005.3
2018-02-17T09:44:44.176Z,1005.28
2018-02-17T09:45:54.106Z,1005.21
2018-02-17T09:47:04.020Z,1005.14
2018-02-17T09:48:13.814Z,1005.05
2018-02-17T09:49:23.924Z,1004.98
2018-02-17T09:50:33.965Z,1004.96
2018-02-17T09:51:44.023Z,1004.88
2018-02-17T09:52:54.291Z,1004.91
2018-02-17T09:54:04.092Z,1004.89
2018-02-17T09:55:13.886Z,1004.76
2018-02-17T09:56:23.416Z,1004.81
2018-02-17T09:57:33.530Z,1004.75
2018-02-17T09:58:43.607Z,1004.73
2018-02-17T09:59:53.149Z,1004.69
2018-02-17T10:01:02.948Z,1004.72
2018-02-17T10:02:13.000Z,1004.68
2018-02-17T10:03:24.244Z,1004.7
2018-02-17T10:04:34.114Z,1004.71
2018-02-17T10:05:43.690Z,1004.73
2018-02-17T10:06:53.756Z,1004.78
2018-02-17T10:08:03.561Z,1004.8
2018-02-17T10:09:13.644Z,1004.82
2018-02-17T10:10:23.746Z,1004.8
2018-02-17T10:11:33.815Z,1004.82
2018-02-17T10:12:43.933Z,1004.95
2018-02-17T10:13:53.759Z,1004.96
2018-02-17T10:15:03.608Z,1004.95
2018-02-17T10:16:13.695Z,1004.95
2018-02-17T10:17:23.244Z,1004.93
2018-02-17T10:18:33.117Z,1004.85
2018-02-17T10:19:43.088Z,1004.85
2018-02-17T10:20:52.918Z,1004.85
2018-02-17T10:22:03.029Z,1004.84
2018-02-17T10:23:12.840Z,1004.83
2018-02-17T10:24:22.999Z,1004.9
2018-02-17T10:25:32.936Z,1004.88
2018-02-17T10:26:42.245Z,1004.86
2018-02-17T10:27:52.071Z,1004.86
2018-02-17T10:29:03.438Z,1004.94
2018-02-17T10:30:13.317Z,1004.94
2018-02-17T10:31:23.389Z,1004.97
2018-02-17T10:32:33.469Z,1004.9
2018-02-17T10:33:43.300Z,1004.84
2018-02-17T10:34:53.395Z,1004.85
2018-02-17T10:36:03.477Z,1004.76
2018-02-17T10:37:13.535Z,1004.74
2018-02-17T10:38:23.642Z,1004.7
2018-02-17T10:39:33.714Z,1004.64
2018-02-17T10:40:43.732Z,1004.57
2018-02-17T10:41:54.094Z,1004.43
2018-02-17T10:43:03.888Z,1004.35
2018-02-17T10:44:13.434Z,1004.3
2018-02-17T10:45:23.662Z,1004.2
2018-02-17T10:46:33.490Z,1004.13
2018-02-17T10:47:43.590Z,1004.11
2018-02-17T10:48:53.415Z,1004.06
2018-02-17T10:50:03.501Z,1004.03
2018-02-17T10:51:13.567Z,1003.98
2018-02-17T10:52:23.678Z,1003.94
2018-02-17T10:53:33.819Z,1003.95
2018-02-17T10:54:44.110Z,1003.9
2018-02-17T10:55:54.201Z,1003.91
2018-02-17T10:57:04.278Z,1003.87
2018-02-17T10:58:14.372Z,1003.88
2018-02-17T10:59:24.180Z,1003.85
2018-02-17T11:00:34.050Z,1003.88
2018-02-17T11:01:43.966Z,1003.85
2018-02-17T11:02:53.771Z,1003.97
2018-02-17T11:04:03.827Z,1003.91
2018-02-17T11:05:13.120Z,1003.9
2018-02-17T11:06:23.742Z,1003.87
2018-02-17T11:07:33.535Z,1003.81
2018-02-17T11:08:43.348Z,1003.75
2018-02-17T11:09:53.422Z,1003.66
2018-02-17T11:11:03.263Z,1003.63
2018-02-17T11:12:13.085Z,1003.6
2018-02-17T11:13:23.003Z,1003.56
2018-02-17T11:14:33.084Z,1003.6
2018-02-17T11:15:42.886Z,1003.67
2018-02-17T11:16:52.435Z,1003.73
2018-02-17T11:18:02.314Z,1003.75
2018-02-17T11:19:12.462Z,1003.72
2018-02-17T11:20:22.764Z,1003.69
2018-02-17T11:21:32.039Z,1003.67
2018-02-17T11:22:41.611Z,1003.66
2018-02-17T11:23:51.226Z,1003.62
2018-02-17T11:25:01.026Z,1003.64
2018-02-17T11:26:11.100Z,1003.59
2018-02-17T11:27:20.698Z,1003.58
2018-02-17T11:28:30.797Z,1003.55
2018-02-17T11:29:40.898Z,1003.54
2018-02-17T11:30:50.724Z,1003.62
2018-02-17T11:32:00.563Z,1003.6
2018-02-17T11:33:11.722Z,1003.59
2018-02-17T11:34:21.542Z,1003.6
2018-02-17T11:35:31.664Z,1003.56
2018-02-17T11:36:41.965Z,1003.55
2018-02-17T11:37:51.852Z,1003.57
2018-02-17T11:39:01.955Z,1003.59
2018-02-17T11:40:12.083Z,1003.64
2018-02-17T11:41:22.157Z,1003.6
2018-02-17T11:42:32.253Z,1003.61
2018-02-17T11:43:42.370Z,1003.61
2018-02-17T11:44:52.162Z,1003.6
2018-02-17T11:46:01.722Z,1003.59
2018-02-17T11:47:11.677Z,1003.57
2018-02-17T11:48:21.493Z,1003.53
2018-02-17T11:49:31.644Z,1003.54
2018-02-17T11:50:41.480Z,1003.5
2018-02-17T11:51:51.295Z,1003.45
2018-02-17T11:53:01.508Z,1003.35
2018-02-17T11:54:11.080Z,1003.33
2018-02-17T11:55:21.207Z,1003.36
2018-02-17T11:56:31.045Z,1003.39
2018-02-17T11:57:40.900Z,1003.33
2018-02-17T11:58:50.970Z,1003.33
2018-02-17T12:00:00.550Z,1003.31
2018-02-17T12:01:10.370Z,1003.25
2018-02-17T12:02:20.185Z,1003.25
2018-02-17T12:03:30.315Z,1003.16
2018-02-17T12:04:40.136Z,1003.08
2018-02-17T12:05:50.241Z,1003.09
2018-02-17T12:07:00.330Z,1003.07
2018-02-17T12:08:10.472Z,1003.03
2018-02-17T12:09:20.585Z,1003.05
2018-02-17T12:10:31.120Z,1003
2018-02-17T12:11:41.256Z,1002.96
2018-02-17T12:12:50.831Z,1002.9
2018-02-17T12:14:00.941Z,1002.84
2018-02-17T12:15:10.746Z,1002.81
2018-02-17T12:16:20.575Z,1002.75
2018-02-17T12:17:30.388Z,1002.7
2018-02-17T12:18:40.219Z,1002.67
2018-02-17T12:19:49.781Z,1002.75
2018-02-17T12:20:59.878Z,1002.71
2018-02-17T12:22:09.725Z,1002.7
2018-02-17T12:23:19.551Z,1002.63
2018-02-17T12:24:29.652Z,1002.64
2018-02-17T12:25:39.750Z,1002.57
2018-02-17T12:26:49.592Z,1002.52
2018-02-17T12:27:59.210Z,1002.52
2018-02-17T12:29:09.301Z,1002.47
2018-02-17T12:30:19.406Z,1002.4
2018-02-17T12:31:29.022Z,1002.37
2018-02-17T12:32:39.309Z,1002.29
2018-02-17T12:33:49.404Z,1002.31
2018-02-17T12:34:59.574Z,1002.29
2018-02-17T12:36:09.648Z,1002.37
2018-02-17T12:37:20.109Z,1002.3
2018-02-17T12:38:29.969Z,1002.41
2018-02-17T12:39:39.850Z,1002.34
2018-02-17T12:40:49.880Z,1002.31
2018-02-17T12:41:59.556Z,1002.32
2018-02-17T12:43:09.511Z,1002.36
2018-02-17T12:44:19.827Z,1002.45
2018-02-17T12:45:29.892Z,1002.42
2018-02-17T12:46:39.813Z,1002.36
2018-02-17T12:47:49.925Z,1002.28
2018-02-17T12:49:00.081Z,1002.25
2018-02-17T12:50:10.128Z,1002.29
2018-02-17T12:51:19.937Z,1002.18
2018-02-17T12:52:30.024Z,1002.16
2018-02-17T12:53:39.953Z,1002.16
2018-02-17T12:54:50.025Z,1002.12
2018-02-17T12:55:59.600Z,1002.1
2018-02-17T12:57:09.393Z,1002.08
2018-02-17T12:58:19.481Z,1002.09
2018-02-17T12:59:29.560Z,1002.16
2018-02-17T13:00:39.099Z,1002.15
2018-02-17T13:01:48.642Z,1002.09
2018-02-17T13:02:59.462Z,1002.03
2018-02-17T13:04:09.543Z,1002.04
2018-02-17T13:05:20.727Z,1002.07
2018-02-17T13:06:30.673Z,1002.13
2018-02-17T13:07:40.540Z,1002.16
2018-02-17T13:08:50.129Z,1002.16
2018-02-17T13:10:00.218Z,1002.14
2018-02-17T13:11:10.043Z,1002.13
2018-02-17T13:12:20.132Z,1002.11
2018-02-17T13:13:30.945Z,1002.02
2018-02-17T13:14:41.499Z,1002.02
2018-02-17T13:15:51.579Z,1001.95
2018-02-17T13:17:01.504Z,1001.96
2018-02-17T13:18:11.603Z,1001.89
2018-02-17T13:19:21.686Z,1001.93
2018-02-17T13:20:31.501Z,1001.88
2018-02-17T13:21:41.597Z,1001.89
2018-02-17T13:22:51.186Z,1001.89
2018-02-17T13:24:01.310Z,1001.88
2018-02-17T13:25:11.412Z,1001.91
2018-02-17T13:26:21.487Z,1001.84
2018-02-17T13:27:31.309Z,1001.82
2018-02-17T13:28:41.447Z,1001.77
2018-02-17T13:29:51.525Z,1001.71
2018-02-17T13:31:01.601Z,1001.72
2018-02-17T13:32:11.142Z,1001.71
2018-02-17T13:33:20.937Z,1001.7
2018-02-17T13:34:31.015Z,1001.68
2018-02-17T13:35:40.615Z,1001.67
2018-02-17T13:36:50.455Z,1001.66
2018-02-17T13:38:00.307Z,1001.68
2018-02-17T13:39:10.116Z,1001.68
2018-02-17T13:40:19.959Z,1001.73
2018-02-17T13:41:29.782Z,1001.66
2018-02-17T13:42:39.067Z,1001.62
2018-02-17T13:43:49.160Z,1001.57
2018-02-17T13:44:58.945Z,1001.53
2018-02-17T13:46:09.012Z,1001.5
2018-02-17T13:47:18.546Z,1001.48
2018-02-17T13:48:28.662Z,1001.51
2018-02-17T13:49:38.808Z,1001.49
2018-02-17T13:50:48.905Z,1001.51
2018-02-17T13:51:58.738Z,1001.48
2018-02-17T13:53:08.564Z,1001.42
2018-02-17T13:54:18.625Z,1001.46
2018-02-17T13:55:28.689Z,1001.46
2018-02-17T13:56:38.795Z,1001.52
2018-02-17T13:57:48.597Z,1001.41
2018-02-17T13:58:58.414Z,1001.4
2018-02-17T14:00:08.162Z,1001.3
2018-02-17T14:01:18.028Z,1001.34
2018-02-17T14:02:27.860Z,1001.3
2018-02-17T14:03:37.940Z,1001.28
2018-02-17T14:04:48.049Z,1001.3
2018-02-17T14:05:57.892Z,1001.29
2018-02-17T14:07:07.746Z,1001.24
2018-02-17T14:08:17.817Z,1001.18
2018-02-17T14:09:27.642Z,1001.21
2018-02-17T14:10:37.464Z,1001.23
2018-02-17T14:11:47.617Z,1001.2
2018-02-17T14:12:57.691Z,1001.15
2018-02-17T14:14:07.525Z,1001.14
2018-02-17T14:15:17.603Z,1001.19
2018-02-17T14:16:27.467Z,1001.11
2018-02-17T14:17:37.294Z,1001.11
2018-02-17T14:18:47.119Z,1001.07
2018-02-17T14:19:57.198Z,1001.08
2018-02-17T14:21:06.752Z,1001.02
2018-02-17T14:22:16.821Z,1001.02
2018-02-17T14:23:26.899Z,1001.12
2018-02-17T14:24:36.462Z,1001.07
2018-02-17T14:25:46.267Z,1001.07
2018-02-17T14:26:56.388Z,1001.1
2018-02-17T14:28:06.204Z,1001.1
2018-02-17T14:29:16.265Z,1001.06
2018-02-17T14:30:26.377Z,1001.05
2018-02-17T14:31:36.535Z,1001.12
2018-02-17T14:32:46.619Z,1001.08
2018-02-17T14:33:56.572Z,1001.1
2018-02-17T14:35:06.372Z,1001.08
2018-02-17T14:36:16.460Z,1001.04
2018-02-17T14:37:26.543Z,1001.05
2018-02-17T14:38:36.379Z,1001.03